createdAt,value
2023-02-06T00:07:30.325Z,88.60
2023-02-06T00:17:55.079Z,93.40
2023-02-06T00:28:50.613Z,101.50
2023-02-06T00:39:15.165Z,92.70
2023-02-06T00:50:07.400Z,87.20
2023-02-06T01:00:34.154Z,90.70
2023-02-06T01:11:09.192Z,111.30
2023-02-06T01:21:23.889Z,82.40
2023-02-06T01:31:50.909Z,96.90
2023-02-06T01:42:22.309Z,96.10
2023-02-06T01:52:37.456Z,76.50
2023-02-06T02:03:05.747Z,92.20
2023-02-06T02:13:32.700Z,78.60
2023-02-06T02:33:59.952Z,79.00
2023-02-06T02:44:30.955Z,79.20
2023-02-06T02:54:56.277Z,72.30
2023-02-06T03:05:14.125Z,68.10
2023-02-06T03:15:36.154Z,64.30
2023-02-06T03:26:00.929Z,72.30
2023-02-06T03:36:08.782Z,74.60
2023-02-06T03:46:52.972Z,65.90
2023-02-06T03:57:10.441Z,67.00
2023-02-06T04:07:56.912Z,62.30
2023-02-06T04:18:25.217Z,67.90
2023-02-06T04:28:52.513Z,79.20
2023-02-06T04:39:06.113Z,66.10
2023-02-06T04:49:39.765Z,65.20
2023-02-06T04:59:57.241Z,54.80
2023-02-06T05:10:27.481Z,54.60
2023-02-06T05:21:22.199Z,50.90
2023-02-06T05:31:45.135Z,50.30
2023-02-06T05:41:51.969Z,47.10
2023-02-06T05:52:16.635Z,63.80
2023-02-06T06:02:32.959Z,70.20
2023-02-06T06:12:59.362Z,77.50
2023-02-06T06:23:22.574Z,83.70
2023-02-06T06:33:33.608Z,80.70
2023-02-06T06:43:45.458Z,89.90
2023-02-06T06:53:59.489Z,82.10
2023-02-06T07:04:10.166Z,143.20
2023-02-06T07:14:19.576Z,104.20
2023-02-06T07:24:26.518Z,94.50
2023-02-06T07:34:33.267Z,95.10
2023-02-06T07:44:52.034Z,102.50
2023-02-06T07:55:16.097Z,121.70
2023-02-06T08:05:20.774Z,84.20
2023-02-06T08:15:36.905Z,69.10
2023-02-06T08:36:32.335Z,117.10
2023-02-06T08:46:45.134Z,164.10
2023-02-06T08:56:56.885Z,99.90
2023-02-06T09:07:01.009Z,53.10
2023-02-06T09:17:07.912Z,55.20
2023-02-06T09:27:12.072Z,47.10
2023-02-06T09:37:28.846Z,47.10
2023-02-06T09:47:47.561Z,39.80
2023-02-06T09:58:21.086Z,13.60
2023-02-06T10:08:51.927Z,13.10
2023-02-06T10:19:14.979Z,21.20
2023-02-06T10:29:28.570Z,13.20
2023-02-06T10:40:23.631Z,12.30
2023-02-06T10:50:40.271Z,12.00
2023-02-06T11:00:55.966Z,19.50
2023-02-06T11:11:55.855Z,21.80
2023-02-06T11:22:47.709Z,15.40
2023-02-06T11:33:17.395Z,19.90
2023-02-06T11:44:03.306Z,15.40
2023-02-06T11:54:19.455Z,14.30
2023-02-06T12:04:52.497Z,17.70
2023-02-06T12:16:01.756Z,12.80
2023-02-06T12:26:39.283Z,13.00
2023-02-06T12:37:31.936Z,17.00
2023-02-06T12:48:02.690Z,24.40
2023-02-06T12:58:25.767Z,25.50
2023-02-06T13:08:51.353Z,25.80
2023-02-06T13:19:20.360Z,26.50
2023-02-06T13:29:46.462Z,27.10
2023-02-06T13:40:46.703Z,23.10
2023-02-06T13:51:49.207Z,27.80
2023-02-06T14:02:39.354Z,26.40
2023-02-06T14:13:34.617Z,30.00
2023-02-06T14:24:26.718Z,33.60
2023-02-06T14:35:32.214Z,34.50
2023-02-06T14:46:15.122Z,30.50
2023-02-06T14:56:40.531Z,27.00
2023-02-06T15:07:31.589Z,29.40
2023-02-06T15:17:37.001Z,26.30
2023-02-06T15:28:21.813Z,20.80
2023-02-06T15:38:43.882Z,22.70
2023-02-06T15:48:58.707Z,30.70
2023-02-06T15:59:25.744Z,34.60
2023-02-06T16:09:55.668Z,32.20
2023-02-06T16:31:14.551Z,27.50
2023-02-06T16:41:27.963Z,49.60
2023-02-06T16:51:40.959Z,90.10
2023-02-06T17:01:45.703Z,43.60
2023-02-06T17:11:59.270Z,51.80
2023-02-06T17:22:07.474Z,41.90
2023-02-06T17:32:12.047Z,102.00
2023-02-06T17:42:26.151Z,69.40
2023-02-06T17:52:34.233Z,53.90
2023-02-06T18:02:47.455Z,56.30
2023-02-06T18:12:56.575Z,65.60
2023-02-06T18:23:10.708Z,61.70
2023-02-06T18:33:17.148Z,60.40
2023-02-06T18:43:45.420Z,68.10
2023-02-06T18:53:57.834Z,94.80
2023-02-06T19:04:04.435Z,92.30
2023-02-06T19:14:30.694Z,120.10
2023-02-06T19:24:44.618Z,127.80
2023-02-06T19:34:55.288Z,94.80
2023-02-06T19:45:10.797Z,129.40
2023-02-06T19:55:42.658Z,129.60
2023-02-06T20:06:27.224Z,117.20
2023-02-06T20:16:37.955Z,182.70
2023-02-06T20:27:03.399Z,156.10
2023-02-06T20:37:42.204Z,144.90
2023-02-06T20:48:19.645Z,146.00
2023-02-06T20:59:07.103Z,122.30
2023-02-06T21:09:37.591Z,120.70
2023-02-06T21:19:54.164Z,205.90
2023-02-06T21:30:02.418Z,193.60
2023-02-06T21:51:27.676Z,155.80
2023-02-06T22:01:41.587Z,175.70
2023-02-06T22:11:57.261Z,154.80
2023-02-06T22:22:43.020Z,164.50
2023-02-06T22:33:47.737Z,178.70
2023-02-06T22:45:01.126Z,203.40
2023-02-06T22:55:09.800Z,179.30
2023-02-06T23:06:07.378Z,191.80
2023-02-06T23:16:55.791Z,188.70
2023-02-06T23:27:44.004Z,186.00
2023-02-06T23:39:11.049Z,172.10
2023-02-06T23:50:08.729Z,143.30
